Time;durP1;ratioP1;P1;durP2;ratioP2;P2;SDS_P1;SDS_P2;PMS_P1;PMS_P2;Temp;Humidity;BMP_temperature;BMP_pressure;BME280_temperature;BME280_humidity;BME280_pressure;Samples;Min_cycle;Max_cycle;Signal;HPM_P1;HPM_P2
2022/03/15 00:01:35;;;;;;;;;;;;;;;-2.11;76.47;100999.23;1798193;80;20112;-61
2022/03/15 00:04:04;;;;;;;;;;;;;;;-2.10;78.40;100997.38;1798442;80;21263;-61
2022/03/15 00:06:34;;;;;;;;;;;;;;;-2.11;77.39;100994.37;1798273;80;20076;-61
2022/03/15 00:09:01;;;;;;;;;;;;;;;-2.15;77.05;100994.44;1798497;80;20130;-61
2022/03/15 00:11:29;;;;;;;;;;;;;;;-2.22;76.89;100998.44;1798408;80;20103;-61
2022/03/15 00:13:57;;;;;;;;;;;;;;;-2.26;78.90;100999.02;1798320;80;20084;-61
2022/03/15 00:16:25;;;;;;;;;;;;;;;-2.25;78.88;100998.83;1798303;80;21153;-61
2022/03/15 00:18:52;;;;;;;;;;;;;;;-2.28;78.31;100993.01;1798259;80;20170;-62
2022/03/15 00:21:20;;;;;;;;;;;;;;;-2.33;77.90;100994.97;1798387;80;20080;-63
2022/03/15 00:23:47;;;;;;;;;;;;;;;-2.39;78.12;100997.09;1798302;80;20108;-63
2022/03/15 00:26:14;;;;;;;;;;;;;;;-2.41;78.55;100997.81;1799453;79;20071;-63
2022/03/15 00:28:41;;;;;;;;;;;;;;;-2.42;78.37;100998.84;1801960;79;21159;-63
2022/03/15 00:31:09;;;;;;;;;;;;;;;-2.48;78.22;100996.41;1797439;79;20161;-63
2022/03/15 00:33:37;;;;;;;;;;;;;;;-2.53;78.02;100988.61;1770560;81;20413;-64
2022/03/15 00:36:06;;;;;;;;;;;;;;;-2.56;79.37;100987.66;1770928;79;20433;-63
2022/03/15 00:38:34;;;;;;;;;;;;;;;-2.54;79.32;100985.61;1800310;79;20408;-62
2022/03/15 00:41:01;;;;;;;;;;;;;;;-2.57;78.99;100973.89;1799726;79;21139;-62
2022/03/15 00:43:28;;;;;;;;;;;;;;;-2.58;78.98;100981.12;1800187;79;20104;-62
2022/03/15 00:45:56;;;;;;;;;;;;;;;-2.58;78.91;100974.41;1800274;79;20114;-62
2022/03/15 00:48:25;;;;;;;;;;;;;;;-2.57;79.82;100973.89;1800311;79;20091;-62
2022/03/15 00:50:54;;;;;;;;;;;;;;;-2.58;79.42;100968.20;1800375;79;20116;-62
2022/03/15 00:53:21;;;;;;;;;;;;;;;-2.66;79.11;100976.72;1800313;79;21232;-62
2022/03/15 00:55:49;;;;;;;;;;;;;;;-2.72;79.17;100973.47;1800177;79;20119;-62
2022/03/15 00:58:16;;;;;;;;;;;;;;;-2.77;79.71;100960.30;1800235;79;20108;-63
2022/03/15 01:00:48;;;;;;;;;;;;;;;-2.79;80.36;100963.69;1800318;79;20136;-62
2022/03/15 01:03:13;;;;;;;;;;;;;;;-2.81;80.10;100961.70;1799915;79;20407;-62
2022/03/15 01:05:40;;;;;;;;;;;;;;;-2.84;79.89;100954.03;1799075;79;21125;-62
2022/03/15 01:08:07;;;;;;;;;;;;;;;-2.88;79.99;100958.96;1774538;79;20156;-62
2022/03/15 01:10:34;;;;;;;;;;;;;;;-2.86;80.80;100958.25;1802203;79;20090;-62
2022/03/15 01:13:01;;;;;;;;;;;;;;;-2.83;80.78;100958.38;1802308;79;20378;-62
2022/03/15 01:15:34;;;;;;;;;;;;;;;-2.84;80.46;100961.58;1802449;79;20475;-62
2022/03/15 01:17:58;;;;;;;;;;;;;;;-2.87;80.31;100955.77;1802327;79;21100;-63
2022/03/15 01:20:29;;;;;;;;;;;;;;;-2.89;80.87;100955.98;1802079;79;20094;-62
2022/03/15 01:22:59;;;;;;;;;;;;;;;-2.88;81.37;100956.27;1802225;79;20460;-62
2022/03/15 01:25:25;;;;;;;;;;;;;;;-2.90;80.90;100952.98;1802462;79;20453;-63
2022/03/15 01:27:52;;;;;;;;;;;;;;;-2.96;80.73;100959.13;1786026;79;20094;-63
2022/03/15 01:30:19;;;;;;;;;;;;;;;-3.00;80.89;100955.99;1783827;80;21125;-64
2022/03/15 01:32:47;;;;;;;;;;;;;;;-2.97;82.39;100956.63;1783576;80;20078;-64
2022/03/15 01:35:16;;;;;;;;;;;;;;;-2.93;82.07;100950.67;1783775;80;20090;-63
2022/03/15 01:37:43;;;;;;;;;;;;;;;-2.88;81.60;100952.75;1783746;80;20687;-64
2022/03/15 01:40:12;;;;;;;;;;;;;;;-2.86;81.27;100952.05;1783780;80;20067;-63
2022/03/15 01:42:39;;;;;;;;;;;;;;;-2.87;81.63;100950.39;1783834;80;21199;-63
2022/03/15 01:45:07;;;;;;;;;;;;;;;-2.85;81.63;100948.33;1783798;80;20139;-63
2022/03/15 01:47:36;;;;;;;;;;;;;;;-2.84;81.08;100945.45;1784011;79;20106;-63
2022/03/15 01:50:03;;;;;;;;;;;;;;;-2.86;80.92;100939.44;1783734;80;20090;-63
2022/03/15 01:52:31;;;;;;;;;;;;;;;-2.88;80.91;100938.80;1783896;80;20078;-63
2022/03/15 01:54:58;;;;;;;;;;;;;;;-2.87;81.93;100932.92;1783939;80;21116;-63
2022/03/15 01:57:25;;;;;;;;;;;;;;;-2.87;81.43;100936.44;1783886;80;20078;-63
2022/03/15 01:59:54;;;;;;;;;;;;;;;-2.87;81.10;100932.92;1783744;80;20118;-64
2022/03/15 02:02:22;;;;;;;;;;;;;;;-2.91;80.81;100931.16;1783675;80;20155;-63
2022/03/15 02:04:50;;;;;;;;;;;;;;;-2.94;81.16;100931.55;1783803;80;20118;-64
2022/03/15 02:07:18;;;;;;;;;;;;;;;-2.94;81.27;100930.72;1783854;80;21320;-64
2022/03/15 02:09:49;;;;;;;;;;;;;;;-2.95;81.14;100927.71;1783754;80;20434;-64
2022/03/15 02:12:17;;;;;;;;;;;;;;;-2.98;80.88;100923.55;1783807;80;20429;-64
2022/03/15 02:14:45;;;;;;;;;;;;;;;-3.03;81.02;100920.62;1784008;80;20456;-64
2022/03/15 02:17:12;;;;;;;;;;;;;;;-3.03;81.58;100919.27;1781494;80;20074;-64
2022/03/15 02:19:43;;;;;;;;;;;;;;;-3.03;81.50;100915.25;1759286;80;20564;-63
2022/03/15 02:22:10;;;;;;;;;;;;;;;-3.02;81.44;100912.88;1763910;80;20073;-62
2022/03/15 02:24:39;;;;;;;;;;;;;;;-3.02;81.33;100915.56;1752891;81;20084;-62
2022/03/15 02:27:06;;;;;;;;;;;;;;;-3.02;81.85;100920.94;1743254;82;20107;-64
2022/03/15 02:29:33;;;;;;;;;;;;;;;-3.00;82.07;100919.72;1746002;82;20095;-62
2022/03/15 02:32:02;;;;;;;;;;;;;;;-3.00;81.64;100929.64;1745879;82;21878;-62
2022/03/15 02:34:29;;;;;;;;;;;;;;;-3.03;81.61;100924.65;1745821;82;20158;-62
2022/03/15 02:36:58;;;;;;;;;;;;;;;-3.07;81.72;100920.69;1764062;81;20406;-63
2022/03/15 02:39:26;;;;;;;;;;;;;;;-3.08;82.84;100924.39;1764039;81;20162;-63
2022/03/15 02:41:55;;;;;;;;;;;;;;;-3.08;82.53;100928.42;1764079;81;20114;-64
2022/03/15 02:44:24;;;;;;;;;;;;;;;-3.16;82.11;100926.70;1764160;81;21248;-62
2022/03/15 02:46:51;;;;;;;;;;;;;;;-3.24;82.23;100928.69;1764086;81;20121;-62
2022/03/15 02:49:18;;;;;;;;;;;;;;;-3.30;82.17;100924.08;1764032;81;20079;-62
2022/03/15 02:51:45;;;;;;;;;;;;;;;-3.42;82.08;100932.64;1764093;81;20474;-62
2022/03/15 02:54:13;;;;;;;;;;;;;;;-3.53;82.34;100930.48;1764034;81;20118;-62
2022/03/15 02:56:42;;;;;;;;;;;;;;;-3.62;82.57;100934.81;1768792;80;21138;-62
2022/03/15 02:59:14;;;;;;;;;;;;;;;-3.71;82.86;100934.93;1789330;80;20092;-63
2022/03/15 03:01:43;;;;;;;;;;;;;;;-3.81;83.14;100938.93;1789982;80;20096;-63
2022/03/15 03:04:10;;;;;;;;;;;;;;;-3.89;83.39;100936.35;1784627;80;20132;-63
2022/03/15 03:06:37;;;;;;;;;;;;;;;-3.97;83.63;100936.45;1788720;79;20166;-63
2022/03/15 03:09:04;;;;;;;;;;;;;;;-4.05;83.88;100939.59;1789741;80;21728;-63
2022/03/15 03:11:32;;;;;;;;;;;;;;;-4.08;84.17;100937.80;1790692;80;20090;-63
2022/03/15 03:14:00;;;;;;;;;;;;;;;-4.08;84.46;100945.84;1786521;80;20462;-63
2022/03/15 03:16:29;;;;;;;;;;;;;;;-4.10;84.58;100936.64;1793636;80;20115;-63
2022/03/15 03:18:58;;;;;;;;;;;;;;;-4.11;84.68;100934.14;1787653;80;20092;-63
2022/03/15 03:21:26;;;;;;;;;;;;;;;-4.15;84.82;100931.51;1772460;80;21151;-63
2022/03/15 03:23:53;;;;;;;;;;;;;;;-4.17;85.01;100930.35;1786551;80;20439;-66
2022/03/15 03:26:21;;;;;;;;;;;;;;;-4.18;85.07;100926.52;1787301;80;20107;-62
2022/03/15 03:28:51;;;;;;;;;;;;;;;-4.22;85.07;100932.77;1785606;80;20527;-62
2022/03/15 03:31:20;;;;;;;;;;;;;;;-4.27;85.09;100935.16;1777551;80;20499;-62
2022/03/15 03:33:49;;;;;;;;;;;;;;;-4.34;85.17;100931.56;1782237;80;20127;-61
2022/03/15 03:36:16;;;;;;;;;;;;;;;-4.43;85.21;100935.34;1781866;79;20112;-63
2022/03/15 03:38:44;;;;;;;;;;;;;;;-4.51;85.56;100932.75;1784148;80;20080;-63
2022/03/15 03:41:11;;;;;;;;;;;;;;;-4.55;86.39;100927.43;1789926;80;20107;-63
2022/03/15 03:43:38;;;;;;;;;;;;;;;-4.58;86.62;100918.42;1788259;80;20096;-62
2022/03/15 03:46:06;;;;;;;;;;;;;;;-4.61;86.82;100918.28;1785273;79;21174;-62
2022/03/15 03:48:35;;;;;;;;;;;;;;;-4.64;86.89;100925.37;1794268;80;20072;-62
2022/03/15 03:51:03;;;;;;;;;;;;;;;-4.68;87.11;100924.08;1789831;80;20173;-63
2022/03/15 03:53:35;;;;;;;;;;;;;;;-4.70;87.32;100921.58;1781545;80;20378;-62
2022/03/15 03:56:03;;;;;;;;;;;;;;;-4.72;87.52;100918.76;1789732;80;20104;-62
2022/03/15 03:58:30;;;;;;;;;;;;;;;-4.73;87.75;100918.44;1787736;80;21254;-61
2022/03/15 04:01:01;;;;;;;;;;;;;;;-4.75;87.85;100915.10;1786707;80;20546;-61
2022/03/15 04:03:29;;;;;;;;;;;;;;;-4.78;88.03;100913.62;1784687;80;20080;-61
2022/03/15 04:05:56;;;;;;;;;;;;;;;-4.77;88.33;100917.13;1790422;80;20463;-61
2022/03/15 04:08:24;;;;;;;;;;;;;;;-4.75;88.63;100912.42;1768199;80;20114;-61
2022/03/15 04:10:51;;;;;;;;;;;;;;;-4.70;88.86;100916.22;1784215;80;21202;-61
2022/03/15 04:13:18;;;;;;;;;;;;;;;-4.62;88.98;100914.47;1787304;80;20167;-61
2022/03/15 04:15:49;;;;;;;;;;;;;;;-4.56;89.05;100913.70;1782257;80;20424;-61
2022/03/15 04:18:17;;;;;;;;;;;;;;;-4.51;89.09;100915.33;1788625;80;20092;-61
2022/03/15 04:20:44;;;;;;;;;;;;;;;-4.44;89.05;100922.95;1791286;80;20080;-61
2022/03/15 04:23:14;;;;;;;;;;;;;;;-4.43;88.76;100927.30;1787843;79;20115;-61
2022/03/15 04:25:42;;;;;;;;;;;;;;;-4.45;88.56;100922.13;1784247;80;20118;-61
2022/03/15 04:28:12;;;;;;;;;;;;;;;-4.48;88.55;100919.81;1789225;79;20080;-62
2022/03/15 04:30:40;;;;;;;;;;;;;;;-4.49;88.58;100911.95;1788106;80;20171;-61
2022/03/15 04:33:07;;;;;;;;;;;;;;;-4.47;88.89;100919.30;1786659;80;20080;-61
2022/03/15 04:35:34;;;;;;;;;;;;;;;-4.43;89.04;100913.39;1789923;80;21129;-61
2022/03/15 04:38:03;;;;;;;;;;;;;;;-4.35;89.29;100905.26;1779665;79;20156;-61
2022/03/15 04:40:30;;;;;;;;;;;;;;;-4.23;89.47;100911.49;1788265;80;20120;-63
2022/03/15 04:43:00;;;;;;;;;;;;;;;-4.13;89.45;100904.00;1787773;80;20092;-63
2022/03/15 04:45:27;;;;;;;;;;;;;;;-3.99;89.34;100903.11;1788921;80;20088;-63
2022/03/15 04:47:55;;;;;;;;;;;;;;;-3.86;89.37;100900.59;1787682;80;21265;-63
2022/03/15 04:50:23;;;;;;;;;;;;;;;-3.73;89.49;100902.59;1788515;80;20088;-63
2022/03/15 04:52:51;;;;;;;;;;;;;;;-3.62;89.01;100906.12;1786534;80;20180;-69
2022/03/15 04:55:20;;;;;;;;;;;;;;;-3.52;88.68;100896.42;1788105;80;20123;-65
2022/03/15 04:57:47;;;;;;;;;;;;;;;-3.45;88.50;100900.80;1788323;80;20149;-70
2022/03/15 05:00:16;;;;;;;;;;;;;;;-3.42;88.34;100900.42;1788237;80;21791;-69
2022/03/15 05:02:44;;;;;;;;;;;;;;;-3.39;88.49;100900.55;1787744;80;20119;-67
2022/03/15 05:05:16;;;;;;;;;;;;;;;-3.31;88.58;100893.70;1792197;80;20107;-70
2022/03/15 05:07:41;;;;;;;;;;;;;;;-3.20;88.42;100896.39;1794125;79;20115;-71
2022/03/15 05:12:57;;;;;;;;;;;;;;;-2.93;88.46;100892.91;1794759;79;20604;-71
2022/03/15 05:15:26;;;;;;;;;;;;;;;-2.79;87.09;100896.49;1794634;79;20080;-67
2022/03/15 05:17:54;;;;;;;;;;;;;;;-2.67;86.59;100895.76;1794685;79;20092;-68
2022/03/15 05:20:24;;;;;;;;;;;;;;;-2.54;85.86;100891.50;1794895;79;20422;-68
2022/03/15 05:22:52;;;;;;;;;;;;;;;-2.41;85.93;100895.09;1794721;80;20104;-70
2022/03/15 05:25:18;;;;;;;;;;;;;;;-2.30;85.41;100890.16;1790419;79;21229;-68
2022/03/15 05:27:46;;;;;;;;;;;;;;;-2.19;84.57;100890.43;1787244;80;20115;-68
2022/03/15 05:30:13;;;;;;;;;;;;;;;-2.10;83.57;100890.58;1785931;79;20116;-75
2022/03/15 05:32:40;;;;;;;;;;;;;;;-2.01;83.12;100882.65;1785836;80;20639;-64
2022/03/15 05:35:07;;;;;;;;;;;;;;;-1.90;83.17;100883.10;1785860;80;20115;-64
2022/03/15 05:37:35;;;;;;;;;;;;;;;-1.80;82.54;100880.34;1785858;80;20097;-68
2022/03/15 05:40:03;;;;;;;;;;;;;;;-1.70;82.18;100878.58;1785929;80;20116;-69
2022/03/15 05:42:34;;;;;;;;;;;;;;;-1.61;81.66;100885.95;1785906;80;20161;-68
2022/03/15 05:45:03;;;;;;;;;;;;;;;-1.51;81.96;100885.88;1785617;80;20127;-66
2022/03/15 05:47:33;;;;;;;;;;;;;;;-1.40;80.95;100887.14;1786112;79;20447;-68
2022/03/15 05:50:01;;;;;;;;;;;;;;;-1.31;79.86;100885.92;1787029;79;22026;-67
2022/03/15 05:55:04;;;;;;;;;;;;;;;-1.13;79.83;100883.41;1769159;80;20123;-68
2022/03/15 05:57:33;;;;;;;;;;;;;;;-1.00;80.38;100887.98;1795023;79;20095;-68
2022/03/15 06:00:05;;;;;;;;;;;;;;;-0.89;79.38;100892.75;1795422;79;20096;-68
2022/03/15 06:02:38;;;;;;;;;;;;;;;-0.79;78.65;100882.38;1794065;80;21161;-68
2022/03/15 06:05:12;;;;;;;;;;;;;;;-0.71;78.57;100880.81;1795486;80;20147;-68
2022/03/15 06:07:50;;;;;;;;;;;;;;;-0.58;78.90;100880.48;1794031;80;20140;-68
2022/03/15 06:10:21;;;;;;;;;;;;;;;-0.42;78.46;100881.36;1795302;79;20490;-71
2022/03/15 06:12:49;;;;;;;;;;;;;;;-0.25;77.56;100877.69;1795439;79;20135;-66
2022/03/15 06:15:18;;;;;;;;;;;;;;;-0.14;75.32;100880.55;1794730;80;21157;-69
2022/03/15 06:17:52;;;;;;;;;;;;;;;-0.05;76.10;100879.80;1787974;79;20452;-69
2022/03/15 06:20:25;;;;;;;;;;;;;;;0.07;76.01;100878.05;1787633;80;20085;-66
2022/03/15 06:22:56;;;;;;;;;;;;;;;0.20;74.70;100870.42;1786974;80;20092;-65
2022/03/15 06:25:26;;;;;;;;;;;;;;;0.30;73.55;100874.31;1787714;80;20093;-68
2022/03/15 06:27:55;;;;;;;;;;;;;;;0.41;72.92;100876.02;1787556;79;21108;-69
2022/03/15 06:30:24;;;;;;;;;;;;;;;0.49;73.35;100870.36;1792747;79;20202;-70
2022/03/15 06:32:53;;;;;;;;;;;;;;;0.59;72.77;100870.16;1796945;79;20111;-70
2022/03/15 06:35:20;;;;;;;;;;;;;;;0.68;71.73;100864.49;1781631;79;20097;-68
2022/03/15 06:37:56;;;;;;;;;;;;;;;;;;1752964;79;20079;-68
2022/03/15 06:40:24;;;;;;;;;;;;;;;0.89;71.86;100873.07;1818968;79;21889;-70
2022/03/15 06:42:52;;;;;;;;;;;;;;;1.04;72.11;100871.39;1820295;79;20074;-68
2022/03/15 06:45:19;;;;;;;;;;;;;;;1.18;70.57;100877.48;1787729;78;20069;-69
2022/03/15 06:47:46;;;;;;;;;;;;;;;1.30;70.86;100873.84;1788183;80;20120;-70
2022/03/15 06:50:14;;;;;;;;;;;;;;;1.44;70.66;100865.59;1750954;82;20083;-69
2022/03/15 06:52:42;;;;;;;;;;;;;;;1.59;69.04;100859.30;1750765;81;21150;-69
2022/03/15 06:55:09;;;;;;;;;;;;;;;1.69;69.18;100858.25;1750930;82;20190;-68
2022/03/15 06:57:36;;;;;;;;;;;;;;;1.78;68.31;100857.39;1751002;82;20083;-70
2022/03/15 07:00:07;;;;;;;;;;;;;;;1.85;68.20;100860.32;1750936;82;20139;-68
2022/03/15 07:02:35;;;;;;;;;;;;;;;1.97;68.52;100861.75;1751338;81;20087;-68
2022/03/15 07:05:02;;;;;;;;;;;;;;;2.09;68.18;100859.92;1756728;80;21257;-71
2022/03/15 07:07:30;;;;;;;;;;;;;;;2.27;68.89;100858.54;1800056;79;20478;-69
2022/03/15 07:09:57;;;;;;;;;;;;;;;2.49;68.41;100860.19;1803986;79;20087;-72
2022/03/15 07:12:26;;;;;;;;;;;;;;;2.70;66.86;100857.48;1796936;79;20417;-67
2022/03/15 07:14:55;;;;;;;;;;;;;;;2.89;67.23;100853.61;1803400;79;20455;-67
2022/03/15 07:17:25;;;;;;;;;;;;;;;3.28;66.76;100854.83;1801014;79;39166;-68
2022/03/15 07:19:52;;;;;;;;;;;;;;;3.86;64.18;100844.41;1784871;80;20096;-64
2022/03/15 07:22:21;;;;;;;;;;;;;;;4.45;63.35;100846.91;1785613;80;21128;-68
2022/03/15 07:24:48;;;;;;;;;;;;;;;5.04;60.47;100846.00;1789292;79;20136;-68
2022/03/15 07:27:15;;;;;;;;;;;;;;;5.51;56.57;100849.16;1773986;79;20175;-69
2022/03/15 07:29:46;;;;;;;;;;;;;;;5.82;58.32;100842.20;1745648;81;21323;-69
2022/03/15 07:32:14;;;;;;;;;;;;;;;6.28;56.83;100838.16;1752196;81;20118;-70
2022/03/15 07:34:42;;;;;;;;;;;;;;;6.76;55.21;100834.53;1696011;81;20181;-69
2022/03/15 07:37:14;;;;;;;;;;;;;;;7.07;51.51;100838.31;1742417;81;20152;-70
2022/03/15 07:39:48;;;;;;;;;;;;;;;7.21;51.16;100835.42;1802513;79;20139;-68
2022/03/15 07:42:19;;;;;;;;;;;;;;;7.39;49.77;100838.83;1770195;79;21095;-68
2022/03/15 07:44:45;;;;;;;;;;;;;;;7.59;50.83;100841.66;1801863;79;20095;-68
2022/03/15 07:47:18;;;;;;;;;;;;;;;7.97;49.95;100835.02;1801646;79;20195;-69
2022/03/15 07:49:50;;;;;;;;;;;;;;;8.25;49.14;100834.55;1769905;79;20094;-69
2022/03/15 07:52:20;;;;;;;;;;;;;;;8.64;48.48;100829.20;1787921;80;20110;-68
2022/03/15 07:54:59;;;;;;;;;;;;;;;8.93;47.69;100831.67;1733951;81;21179;-69
2022/03/15 07:57:25;;;;;;;;;;;;;;;8.92;45.17;100823.18;1749730;81;20160;-73
2022/03/15 07:59:57;;;;;;;;;;;;;;;8.87;46.30;100824.00;1751614;80;20149;-78
2022/03/15 08:02:30;;;;;;;;;;;;;;;9.09;45.72;100826.47;1751737;81;20472;-70
2022/03/15 08:04:58;;;;;;;;;;;;;;;9.18;44.29;100819.89;1732345;82;20141;-67
2022/03/15 08:07:36;;;;;;;;;;;;;;;9.09;43.98;100825.09;1747178;81;20145;-68
2022/03/15 08:10:04;;;;;;;;;;;;;;;8.99;45.42;100830.58;1747257;81;20153;-70
2022/03/15 08:12:32;;;;;;;;;;;;;;;9.10;44.95;100830.84;1814753;77;20464;-69
2022/03/15 08:15:04;;;;;;;;;;;;;;;9.38;44.19;100827.23;1774199;79;20123;-69
2022/03/15 08:17:42;;;;;;;;;;;;;;;9.33;43.27;100817.65;1728107;82;20146;-67
2022/03/15 08:20:23;;;;;;;;;;;;;;;9.41;44.55;100822.56;1758156;81;21802;-66
2022/03/15 08:22:47;;;;;;;;;;;;;;;9.64;42.71;100817.86;1756920;81;20452;-70
2022/03/15 08:25:15;;;;;;;;;;;;;;;9.65;41.52;100809.91;1735604;81;20172;-73
2022/03/15 08:27:43;;;;;;;;;;;;;;;9.52;42.02;100809.11;1762502;81;20085;-68
2022/03/15 08:30:13;;;;;;;;;;;;;;;9.66;43.52;100808.80;1712845;80;20118;-66
2022/03/15 08:32:47;;;;;;;;;;;;;;;10.12;42.62;100808.59;1780337;80;22079;-67
2022/03/15 08:35:19;;;;;;;;;;;;;;;10.57;41.98;100807.52;1785460;80;20490;-67
2022/03/15 08:37:50;;;;;;;;;;;;;;;11.01;40.89;100815.67;1780378;80;20080;-68
2022/03/15 08:40:21;;;;;;;;;;;;;;;11.04;38.71;100812.35;1787184;80;20123;-66
2022/03/15 08:42:53;;;;;;;;;;;;;;;10.84;38.86;100812.55;1786259;80;20097;-65
2022/03/15 08:45:23;;;;;;;;;;;;;;;10.86;39.25;100815.27;1780502;80;22163;-66
2022/03/15 08:48:07;;;;;;;;;;;;;;;10.82;38.61;100814.20;1762001;81;20080;-67
2022/03/15 08:50:25;;;;;;;;;;;;;;;10.76;38.45;100814.53;1772373;80;20114;-66
2022/03/15 08:52:59;;;;;;;;;;;;;;;10.74;38.36;100801.63;1786808;80;20120;-66
2022/03/15 08:55:30;;;;;;;;;;;;;;;10.88;37.80;100808.12;1781584;80;20138;-66
2022/03/15 08:57:57;;;;;;;;;;;;;;;10.90;38.33;100809.47;1753077;81;21951;-66
2022/03/15 09:00:27;;;;;;;;;;;;;;;11.10;38.10;100807.08;1775969;80;20209;-68
2022/03/15 09:03:05;;;;;;;;;;;;;;;11.17;38.19;100804.81;1787175;80;20145;-67
2022/03/15 09:05:34;;;;;;;;;;;;;;;11.22;38.03;100807.52;1785820;80;20084;-67
2022/03/15 09:08:10;;;;;;;;;;;;;;;11.49;37.70;100800.66;1753546;80;20164;-67
2022/03/15 09:10:44;;;;;;;;;;;;;;;11.84;36.87;100798.89;1756688;80;20835;-71
2022/03/15 09:13:07;;;;;;;;;;;;;;;12.15;34.79;100799.84;1781743;80;20493;-68
2022/03/15 09:15:43;;;;;;;;;;;;;;;12.22;35.48;100790.67;1760426;81;20118;-68
2022/03/15 09:18:15;;;;;;;;;;;;;;;12.39;35.13;100786.03;1761798;81;20105;-69
2022/03/15 09:20:53;;;;;;;;;;;;;;;12.59;33.68;100787.66;1733916;81;20098;-74
2022/03/15 09:23:23;;;;;;;;;;;;;;;12.54;33.92;100786.63;1785179;80;21087;-71
2022/03/15 09:25:54;;;;;;;;;;;;;;;12.62;34.93;100784.31;1779866;80;20137;-69
2022/03/15 09:28:25;;;;;;;;;;;;;;;12.95;32.98;100777.68;1785826;80;20104;-68
2022/03/15 09:30:56;;;;;;;;;;;;;;;13.07;32.66;100777.20;1782282;79;20116;-66
2022/03/15 09:33:31;;;;;;;;;;;;;;;13.08;33.25;100776.08;1790129;79;20197;-66
2022/03/15 09:35:59;;;;;;;;;;;;;;;13.17;32.92;100782.02;1795565;79;20891;-69
2022/03/15 09:38:26;;;;;;;;;;;;;;;13.29;32.79;100780.67;1791793;80;20123;-69
2022/03/15 09:40:56;;;;;;;;;;;;;;;13.40;31.59;100773.85;1745587;81;20093;-69
2022/03/15 09:43:24;;;;;;;;;;;;;;;13.39;32.20;100781.87;1746374;81;20157;-76
2022/03/15 09:45:52;;;;;;;;;;;;;;;13.41;32.47;100781.00;1772456;81;20169;-73
2022/03/15 09:48:23;;;;;;;;;;;;;;;13.52;31.21;100775.55;1772701;81;21186;-74
2022/03/15 09:50:52;;;;;;;;;;;;;;;13.65;32.35;100769.78;1745262;81;20110;-75
2022/03/15 09:53:32;;;;;;;;;;;;;;;13.91;31.41;100769.49;1772340;81;20156;-79
2022/03/15 09:55:58;;;;;;;;;;;;;;;14.12;31.70;100765.73;1771786;81;20114;-76
2022/03/15 09:58:27;;;;;;;;;;;;;;;14.38;33.38;100769.56;1772382;81;20160;-71
2022/03/15 10:00:54;;;;;;;;;;;;;;;14.76;31.74;100763.70;1777668;79;21137;-70
2022/03/15 10:03:23;;;;;;;;;;;;;;;14.73;31.01;100755.47;1786515;79;20134;-69
2022/03/15 10:05:51;;;;;;;;;;;;;;;14.81;29.33;100766.34;1802690;79;20095;-71
2022/03/15 10:08:36;;;;;;;;;;;;;;;14.59;29.89;100763.00;1776256;79;20135;-73
2022/03/15 10:10:56;;;;;;;;;;;;;;;14.49;30.67;100764.06;1794298;79;20112;-75
2022/03/15 10:13:26;;;;;;;;;;;;;;;14.59;30.29;100763.56;1804010;79;21093;-70
2022/03/15 10:15:59;;;;;;;;;;;;;;;14.73;29.42;100752.70;1799850;79;20080;-73
2022/03/15 10:18:28;;;;;;;;;;;;;;;14.64;28.53;100751.01;1789570;79;20112;-75
2022/03/15 10:20:55;;;;;;;;;;;;;;;14.42;29.68;100747.69;1767250;80;20459;-75
2022/03/15 10:23:30;;;;;;;;;;;;;;;14.36;30.21;100752.48;1779520;80;20167;-79
2022/03/15 10:25:59;;;;;;;;;;;;;;;14.32;29.79;100736.84;1788022;79;21001;-75
2022/03/15 10:28:26;;;;;;;;;;;;;;;14.44;30.05;100741.28;1796266;79;20114;-79
2022/03/15 10:30:53;;;;;;;;;;;;;;;14.51;28.99;100747.98;1790660;79;20130;-72
2022/03/15 10:33:21;;;;;;;;;;;;;;;14.31;30.24;100750.41;1772129;79;20119;-70
2022/03/15 10:35:52;;;;;;;;;;;;;;;14.01;29.82;100746.38;1802909;79;20099;-72
2022/03/15 10:38:20;;;;;;;;;;;;;;;13.95;31.54;100747.61;1797859;79;21385;-71
2022/03/15 10:40:49;;;;;;;;;;;;;;;14.25;28.63;100741.98;1815121;77;20080;-71
2022/03/15 10:43:23;;;;;;;;;;;;;;;14.21;29.93;100737.64;1765617;80;20108;-68
2022/03/15 10:45:55;;;;;;;;;;;;;;;14.39;31.46;100728.37;1760594;81;20426;-76
2022/03/15 10:48:22;;;;;;;;;;;;;;;14.72;29.52;100730.34;1768316;79;20194;-75
2022/03/15 10:50:52;;;;;;;;;;;;;;;14.78;28.91;100729.09;1821702;77;21125;-73
2022/03/15 10:53:20;;;;;;;;;;;;;;;14.71;29.22;100723.75;1769632;80;20473;-69
2022/03/15 10:55:55;;;;;;;;;;;;;;;14.77;28.86;100722.49;1803635;79;20079;-77
2022/03/15 10:58:23;;;;;;;;;;;;;;;14.68;28.87;100718.85;1770825;79;20163;-83
2022/03/15 11:00:56;;;;;;;;;;;;;;;14.41;28.37;100712.88;1796510;79;20257;-76
2022/03/15 11:03:29;;;;;;;;;;;;;;;14.29;29.23;100706.52;1773493;79;21146;-77
2022/03/15 11:06:04;;;;;;;;;;;;;;;14.19;29.49;100706.76;1777870;80;20100;-66
2022/03/15 11:08:36;;;;;;;;;;;;;;;14.12;29.46;100711.89;1777405;80;20136;-66
2022/03/15 11:11:07;;;;;;;;;;;;;;;14.23;29.84;100706.95;1769552;80;20168;-69
2022/03/15 11:13:34;;;;;;;;;;;;;;;14.39;30.14;100704.08;1784430;79;20081;-68
2022/03/15 11:16:03;;;;;;;;;;;;;;;14.52;28.44;100704.03;1778804;79;21128;-67
2022/03/15 11:18:42;;;;;;;;;;;;;;;14.45;28.93;100693.98;1776159;79;20218;-68
2022/03/15 11:21:13;;;;;;;;;;;;;;;14.53;28.22;100701.52;1772109;79;20265;-69
2022/03/15 11:23:41;;;;;;;;;;;;;;;14.63;28.47;100698.25;1768497;79;20438;-69
2022/03/15 11:26:12;;;;;;;;;;;;;;;14.76;28.09;100695.98;1788450;79;20136;-70
2022/03/15 11:28:39;;;;;;;;;;;;;;;14.86;28.68;100697.92;1787411;79;21190;-69
2022/03/15 11:31:08;;;;;;;;;;;;;;;15.18;27.49;100690.41;1754143;80;20452;-70
2022/03/15 11:33:38;;;;;;;;;;;;;;;15.22;27.69;100686.44;1762577;80;20116;-72
2022/03/15 11:36:05;;;;;;;;;;;;;;;15.47;28.96;100681.01;1794265;79;20080;-69
2022/03/15 11:38:35;;;;;;;;;;;;;;;15.85;27.94;100674.34;1795204;80;20107;-73
2022/03/15 11:41:05;;;;;;;;;;;;;;;16.24;27.84;100671.17;1790083;79;21255;-71
2022/03/15 11:43:40;;;;;;;;;;;;;;;16.49;26.72;100678.66;1789507;79;20454;-70
2022/03/15 11:46:16;;;;;;;;;;;;;;;16.48;26.52;100665.12;1788450;80;20080;-66
2022/03/15 11:48:55;;;;;;;;;;;;;;;16.31;26.09;100659.59;1789709;80;20108;-68
2022/03/15 11:51:29;;;;;;;;;;;;;;;16.22;26.13;100667.91;1755326;80;20415;-68
2022/03/15 11:54:11;;;;;;;;;;;;;;;16.30;26.98;100660.16;1788952;80;21228;-67
2022/03/15 11:56:53;;;;;;;;;;;;;;;16.39;26.93;100660.16;1786172;80;20080;-68
2022/03/15 11:59:20;;;;;;;;;;;;;;;16.25;29.40;100654.78;1754024;80;20120;-68
2022/03/15 12:01:54;;;;;;;;;;;;;;;16.46;26.61;100649.39;1783950;80;20172;-66
2022/03/15 12:04:24;;;;;;;;;;;;;;;16.66;26.03;100639.60;1759367;80;20123;-67
2022/03/15 12:06:59;;;;;;;;;;;;;;;16.88;26.76;100639.92;1781677;79;22564;-67
2022/03/15 12:09:36;;;;;;;;;;;;;;;16.98;25.12;100635.41;1781715;80;20132;-66
2022/03/15 12:12:09;;;;;;;;;;;;;;;16.89;25.14;100631.84;1784415;80;20143;-66
2022/03/15 12:14:43;;;;;;;;;;;;;;;16.90;25.02;100630.13;1778544;80;20080;-67
2022/03/15 12:17:12;;;;;;;;;;;;;;;17.05;24.89;100629.58;1786711;80;20168;-66
2022/03/15 12:19:50;;;;;;;;;;;;;;;16.95;24.93;100634.11;1787808;80;21247;-66
2022/03/15 12:22:25;;;;;;;;;;;;;;;16.73;25.46;100630.21;1784422;80;20442;-66
2022/03/15 12:25:10;;;;;;;;;;;;;;;16.72;24.82;100629.97;1786343;80;20439;-66
2022/03/15 12:27:46;;;;;;;;;;;;;;;16.58;24.89;100622.39;1773407;80;20081;-68
2022/03/15 12:30:18;;;;;;;;;;;;;;;16.46;25.52;100620.29;1792951;80;20129;-67
2022/03/15 12:32:53;;;;;;;;;;;;;;;16.49;24.92;100630.72;1796321;80;21136;-67
2022/03/15 12:35:27;;;;;;;;;;;;;;;16.48;25.88;100620.20;1796275;80;20091;-67
2022/03/15 12:38:06;;;;;;;;;;;;;;;16.70;26.49;100617.01;1796233;80;20150;-67
2022/03/15 12:40:33;;;;;;;;;;;;;;;17.09;26.00;100615.28;1795676;80;20116;-67
2022/03/15 12:43:02;;;;;;;;;;;;;;;17.56;25.42;100609.61;1796353;80;20438;-67
2022/03/15 12:45:29;;;;;;;;;;;;;;;17.86;24.67;100609.02;1796320;80;21130;-67
2022/03/15 12:48:04;;;;;;;;;;;;;;;17.86;23.65;100606.25;1789593;80;20200;-67
2022/03/15 12:50:32;;;;;;;;;;;;;;;17.71;23.64;100616.57;1789682;80;20136;-67
2022/03/15 12:53:15;;;;;;;;;;;;;;;17.32;24.68;100614.44;1787161;80;20677;-67
2022/03/15 12:55:43;;;;;;;;;;;;;;;17.12;23.72;100617.97;1783313;80;20168;-67